This is the latest recevied weather packets stored in our database for station/object DC4AT. If no packets are shown the sender has not sent any weather packets the latest 10 day(s).
| Time | Temp. | Humidity | Pressure | Rain* | Wind** | Luminosity | Snow |
|---|---|---|---|---|---|---|---|
| 1777760622 | 14.44° C | 64% | 1014.8 hPa | 0 mm | - | 0 W/m² | - |
| 1777760022 | 15° C | 63% | 1014.8 hPa | 0 mm | - | 0 W/m² | - |
| 1777759422 | 15° C | 62% | 1014.8 hPa | 0 mm | - | 0 W/m² | - |
| 1777758822 | 15° C | 63% | 1014.9 hPa | 0 mm | - | 0 W/m² | - |
| 1777758222 | 15.56° C | 63% | 1015 hPa | 0 mm | - | 0 W/m² | - |
| 1777757622 | 16.11° C | 61% | 1015.1 hPa | 0 mm | - | 0 W/m² | - |
| 1777757022 | 16.67° C | 59% | 1015.1 hPa | 0 mm | - | 0 W/m² | - |
| 1777756422 | 16.67° C | 57% | 1015.1 hPa | 0 mm | - | 0 W/m² | - |
| 1777755822 | 16.67° C | 58% | 1015.1 hPa | 0 mm | - | 0 W/m² | - |
| 1777755222 | 16.67° C | 58% | 1015.2 hPa | 0 mm | - | 0 W/m² | - |
| 1777752222 | 18.33° C | 56% | 1015.3 hPa | 0 mm | - | 0 W/m² | - |
| 1777751622 | 18.33° C | 54% | 1015.3 hPa | 0 mm | - | 0 W/m² | - |
| 1777748022 | 18.89° C | 50% | 1015.2 hPa | 0 mm | - | 0 W/m² | - |
| 1777745022 | 20.56° C | 51% | 1015.1 hPa | 0 mm | - | 53 W/m² | - |
| 1777735422 | 25.56° C | 30% | 1016.5 hPa | 0 mm | - | 288 W/m² | - |
| 1777734822 | 25.56° C | 31% | 1016.5 hPa | 0 mm | - | 272 W/m² | - |
| 1777734222 | 25.56° C | 31% | 1016.6 hPa | 0 mm | - | 406 W/m² | - |
| 1777733623 | 25.56° C | 32% | 1016.7 hPa | 0 mm | - | 452 W/m² | - |
| 1777732423 | 25.56° C | 32% | 1016.9 hPa | 0 mm | - | 438 W/m² | - |
| 1777731823 | 25.56° C | 31% | 1017 hPa | 0 mm | - | 527 W/m² | - |
| 1777731223 | 25.56° C | 32% | 1017 hPa | 0 mm | - | 545 W/m² | - |
| 1777730623 | 25.56° C | 34% | 1017 hPa | 0 mm | - | 606 W/m² | - |
| 1777730023 | 25.56° C | 34% | 1017.2 hPa | 0 mm | - | 612 W/m² | - |
| 1777729423 | 25.56° C | 33% | 1017.3 hPa | 0 mm | - | 636 W/m² | - |
| 1777728823 | 25.56° C | 35% | 1017.4 hPa | 0 mm | - | 635 W/m² | - |
* Rain latest hour (hover to see other rain measurements)
** Current wind speed in m/s (hover to see current wind gust speed)